Check out our new PWSWeather beta!
PWSweather.com
Personal Weather Stations
Station Observations

SkegnessGB

Lat: 53.147585, Lon: 0.345774

Elevation: 18

Station Type: Fine Offset WH3080

http://www.skegnessweather.info/

High Low Average
Temperature 45.7°F7.6°C 41.0°F5.0°C 44.0°F6.7°C
Dew Point 40.9°F4.9°C 37.4°F3.0°C 39.9°F4.4°C
Winds 15.8 mph 25.4 kmh 7.3 mph 11.7 kmh 11.0 mph SSW17.7 kmh SSW
Wind Gusts 17.5 mph28.2 kmh 7.6 mph12.2 kmh 12.0 mph19.3 kmh
Humidity 89% 80% 85%
Pressure 30.51 in1033.2 mb 30.32 in1026.8 mb -
Precipitation 0.00 in0.0 mm - -
Hour Temp Dew Point Humidity Winds Wind Gusts Pressure Precip Precip Rate Daily Precip Total
12:00 AM 44.4°F6.9°C 40.8°F4.9°C 87% 10.5 mph SW16.9 kmh SW 11.8 mph19.0 kmh 30.51 in1033.2 mb 0.00 in0.0 mm 0.00 in0.0 mm 0.00 in0.0 mm
12:10 AM 44.4°F6.9°C 40.8°F4.9°C 87% 9.1 mph SSW14.6 kmh SSW 11.8 mph19.0 kmh 30.51 in1033.2 mb 0.00 in0.0 mm 0.00 in0.0 mm 0.00 in0.0 mm
12:20 AM 44.4°F6.9°C 40.8°F4.9°C 87% 9.2 mph S14.8 kmh S 10.1 mph16.3 kmh 30.51 in1033.2 mb 0.00 in0.0 mm 0.00 in0.0 mm 0.00 in0.0 mm
12:30 AM 44.4°F6.9°C 40.8°F4.9°C 87% 11.1 mph SSE17.9 kmh SSE 12.5 mph20.1 kmh 30.50 in1032.8 mb 0.00 in0.0 mm 0.00 in0.0 mm 0.00 in0.0 mm
12:40 AM 44.4°F6.9°C 40.8°F4.9°C 87% 12.2 mph SW19.6 kmh SW 12.5 mph20.1 kmh 30.50 in1032.8 mb 0.00 in0.0 mm 0.00 in0.0 mm 0.00 in0.0 mm
12:50 AM 44.4°F6.9°C 40.8°F4.9°C 87% 9.7 mph S15.6 kmh S 9.1 mph14.6 kmh 30.49 in1032.5 mb 0.00 in0.0 mm 0.00 in0.0 mm 0.00 in0.0 mm
01:00 AM 44.2°F6.8°C 40.6°F4.8°C 87% 10.1 mph WSW16.3 kmh WSW 10.8 mph17.4 kmh 30.49 in1032.5 mb 0.00 in0.0 mm 0.00 in0.0 mm 0.00 in0.0 mm
01:10 AM 44.2°F6.8°C 40.6°F4.8°C 87% 9.5 mph WNW15.3 kmh WNW 11.8 mph19.0 kmh 30.49 in1032.5 mb 0.00 in0.0 mm 0.00 in0.0 mm 0.00 in0.0 mm
01:20 AM 44.1°F6.7°C 40.4°F4.7°C 87% 10.1 mph SSW16.3 kmh SSW 11.8 mph19.0 kmh 30.48 in1032.2 mb 0.00 in0.0 mm 0.00 in0.0 mm 0.00 in0.0 mm
01:30 AM 44.1°F6.7°C 40.1°F4.5°C 86% 8.5 mph SW13.7 kmh SW 8.4 mph13.5 kmh 30.49 in1032.5 mb 0.00 in0.0 mm 0.00 in0.0 mm 0.00 in0.0 mm
01:40 AM 44.1°F6.7°C 40.1°F4.5°C 86% 8.9 mph SW14.3 kmh SW 13.3 mph21.4 kmh 30.49 in1032.5 mb 0.00 in0.0 mm 0.00 in0.0 mm 0.00 in0.0 mm
01:50 AM 44.1°F6.7°C 40.1°F4.5°C 86% 8.4 mph SW13.5 kmh SW 12.5 mph20.1 kmh 30.50 in1032.8 mb 0.00 in0.0 mm 0.00 in0.0 mm 0.00 in0.0 mm
02:00 AM 43.9°F6.6°C 40.3°F4.6°C 87% 9.0 mph SSW14.5 kmh SSW 10.8 mph17.4 kmh 30.49 in1032.5 mb 0.00 in0.0 mm 0.00 in0.0 mm 0.00 in0.0 mm
02:10 AM 43.9°F6.6°C 40.3°F4.6°C 87% 9.5 mph SW15.3 kmh SW 10.1 mph16.3 kmh 30.48 in1032.2 mb 0.00 in0.0 mm 0.00 in0.0 mm 0.00 in0.0 mm
02:20 AM 43.9°F6.6°C 40.3°F4.6°C 87% 10.4 mph SW16.7 kmh SW 11.8 mph19.0 kmh 30.48 in1032.2 mb 0.00 in0.0 mm 0.00 in0.0 mm 0.00 in0.0 mm
02:30 AM 43.9°F6.6°C 40.3°F4.6°C 87% 8.5 mph SW13.7 kmh SW 8.4 mph13.5 kmh 30.49 in1032.5 mb 0.00 in0.0 mm 0.00 in0.0 mm 0.00 in0.0 mm
02:40 AM 43.9°F6.6°C 40.3°F4.6°C 87% 10.3 mph W16.6 kmh W 10.8 mph17.4 kmh 30.48 in1032.2 mb 0.00 in0.0 mm 0.00 in0.0 mm 0.00 in0.0 mm
02:50 AM 43.9°F6.6°C 40.3°F4.6°C 87% 9.7 mph SSW15.6 kmh SSW 16.0 mph25.7 kmh 30.49 in1032.5 mb 0.00 in0.0 mm 0.00 in0.0 mm 0.00 in0.0 mm
03:00 AM 43.9°F6.6°C 40.3°F4.6°C 87% 10.3 mph SSW16.6 kmh SSW 10.8 mph17.4 kmh 30.48 in1032.2 mb 0.00 in0.0 mm 0.00 in0.0 mm 0.00 in0.0 mm
03:10 AM 43.9°F6.6°C 40.3°F4.6°C 87% 11.5 mph SSE18.5 kmh SSE 10.8 mph17.4 kmh 30.49 in1032.5 mb 0.00 in0.0 mm 0.00 in0.0 mm 0.00 in0.0 mm
03:20 AM 43.9°F6.6°C 40.3°F4.6°C 87% 12.1 mph S19.5 kmh S 12.5 mph20.1 kmh 30.48 in1032.2 mb 0.00 in0.0 mm 0.00 in0.0 mm 0.00 in0.0 mm
03:30 AM 43.9°F6.6°C 40.3°F4.6°C 87% 9.8 mph S15.8 kmh S 10.1 mph16.3 kmh 30.48 in1032.2 mb 0.00 in0.0 mm 0.00 in0.0 mm 0.00 in0.0 mm
03:40 AM 43.9°F6.6°C 40.3°F4.6°C 87% 10.8 mph SW17.4 kmh SW 11.8 mph19.0 kmh 30.47 in1031.8 mb 0.00 in0.0 mm 0.00 in0.0 mm 0.00 in0.0 mm
03:50 AM 43.9°F6.6°C 40.3°F4.6°C 87% 10.5 mph SW16.9 kmh SW 10.8 mph17.4 kmh 30.48 in1032.2 mb 0.00 in0.0 mm 0.00 in0.0 mm 0.00 in0.0 mm
04:00 AM 43.9°F6.6°C 40.3°F4.6°C 87% 11.9 mph S19.2 kmh S 12.5 mph20.1 kmh 30.46 in1031.5 mb 0.00 in0.0 mm 0.00 in0.0 mm 0.00 in0.0 mm
04:10 AM 43.7°F6.5°C 40.1°F4.5°C 87% 12.2 mph S19.6 kmh S 12.5 mph20.1 kmh 30.46 in1031.5 mb 0.00 in0.0 mm 0.00 in0.0 mm 0.00 in0.0 mm
04:20 AM 43.7°F6.5°C 40.1°F4.5°C 87% 9.6 mph S15.4 kmh S 11.8 mph19.0 kmh 30.47 in1031.8 mb 0.00 in0.0 mm 0.00 in0.0 mm 0.00 in0.0 mm
04:30 AM 43.7°F6.5°C 40.1°F4.5°C 87% 8.9 mph SW14.3 kmh SW 11.8 mph19.0 kmh 30.47 in1031.8 mb 0.00 in0.0 mm 0.00 in0.0 mm 0.00 in0.0 mm
04:40 AM 43.7°F6.5°C 40.1°F4.5°C 87% 8.4 mph S13.5 kmh S 9.1 mph14.6 kmh 30.47 in1031.8 mb 0.00 in0.0 mm 0.00 in0.0 mm 0.00 in0.0 mm
04:50 AM 43.7°F6.5°C 40.1°F4.5°C 87% 11.3 mph S18.2 kmh S 12.5 mph20.1 kmh 30.46 in1031.5 mb 0.00 in0.0 mm 0.00 in0.0 mm 0.00 in0.0 mm
05:00 AM 43.7°F6.5°C 40.1°F4.5°C 87% 8.3 mph WSW13.4 kmh WSW 10.1 mph16.3 kmh 30.47 in1031.8 mb 0.00 in0.0 mm 0.00 in0.0 mm 0.00 in0.0 mm
05:10 AM 43.7°F6.5°C 40.1°F4.5°C 87% 8.3 mph SW13.4 kmh SW 10.1 mph16.3 kmh 30.47 in1031.8 mb 0.00 in0.0 mm 0.00 in0.0 mm 0.00 in0.0 mm
05:20 AM 43.7°F6.5°C 40.1°F4.5°C 87% 9.3 mph S15.0 kmh S 13.3 mph21.4 kmh 30.47 in1031.8 mb 0.00 in0.0 mm 0.00 in0.0 mm 0.00 in0.0 mm
05:30 AM 43.7°F6.5°C 40.1°F4.5°C 87% 8.7 mph SW14.0 kmh SW 10.1 mph16.3 kmh 30.46 in1031.5 mb 0.00 in0.0 mm 0.00 in0.0 mm 0.00 in0.0 mm
05:40 AM 43.7°F6.5°C 40.1°F4.5°C 87% 8.5 mph SW13.7 kmh SW 8.4 mph13.5 kmh 30.46 in1031.5 mb 0.00 in0.0 mm 0.00 in0.0 mm 0.00 in0.0 mm
05:50 AM 43.7°F6.5°C 40.4°F4.7°C 88% 9.9 mph SW15.9 kmh SW 10.1 mph16.3 kmh 30.46 in1031.5 mb 0.00 in0.0 mm 0.00 in0.0 mm 0.00 in0.0 mm
06:00 AM 43.7°F6.5°C 40.4°F4.7°C 88% 11.2 mph SW18.0 kmh SW 10.8 mph17.4 kmh 30.46 in1031.5 mb 0.00 in0.0 mm 0.00 in0.0 mm 0.00 in0.0 mm
06:10 AM 43.7°F6.5°C 40.4°F4.7°C 88% 11.1 mph S17.9 kmh S 10.8 mph17.4 kmh 30.45 in1031.2 mb 0.00 in0.0 mm 0.00 in0.0 mm 0.00 in0.0 mm
06:20 AM 43.7°F6.5°C 40.4°F4.7°C 88% 10.4 mph SSE16.7 kmh SSE 12.5 mph20.1 kmh 30.45 in1031.2 mb 0.00 in0.0 mm 0.00 in0.0 mm 0.00 in0.0 mm
06:30 AM 43.7°F6.5°C 40.4°F4.7°C 88% 9.7 mph S15.6 kmh S 10.8 mph17.4 kmh 30.46 in1031.5 mb 0.00 in0.0 mm 0.00 in0.0 mm 0.00 in0.0 mm
06:40 AM 43.7°F6.5°C 40.4°F4.7°C 88% 11.0 mph SSW17.7 kmh SSW 13.3 mph21.4 kmh 30.46 in1031.5 mb 0.00 in0.0 mm 0.00 in0.0 mm 0.00 in0.0 mm
06:50 AM 43.7°F6.5°C 40.7°F4.8°C 89% 12.6 mph S20.3 kmh S 12.5 mph20.1 kmh 30.45 in1031.2 mb 0.00 in0.0 mm 0.00 in0.0 mm 0.00 in0.0 mm
07:00 AM 43.7°F6.5°C 40.7°F4.8°C 89% 11.2 mph S18.0 kmh S 11.8 mph19.0 kmh 30.45 in1031.2 mb 0.00 in0.0 mm 0.00 in0.0 mm 0.00 in0.0 mm
07:10 AM 43.7°F6.5°C 40.7°F4.8°C 89% 8.4 mph S13.5 kmh S 9.1 mph14.6 kmh 30.46 in1031.5 mb 0.00 in0.0 mm 0.00 in0.0 mm 0.00 in0.0 mm
07:20 AM 43.7°F6.5°C 40.7°F4.8°C 89% 8.2 mph SSW13.2 kmh SSW 9.1 mph14.6 kmh 30.45 in1031.2 mb 0.00 in0.0 mm 0.00 in0.0 mm 0.00 in0.0 mm
07:30 AM 43.7°F6.5°C 40.7°F4.8°C 89% 8.2 mph SSW13.2 kmh SSW 10.8 mph17.4 kmh 30.45 in1031.2 mb 0.00 in0.0 mm 0.00 in0.0 mm 0.00 in0.0 mm
07:40 AM 43.5°F6.4°C 40.5°F4.7°C 89% 11.2 mph S18.0 kmh S 10.8 mph17.4 kmh 30.44 in1030.8 mb 0.00 in0.0 mm 0.00 in0.0 mm 0.00 in0.0 mm
07:50 AM 43.5°F6.4°C 40.5°F4.7°C 89% 10.3 mph S16.6 kmh S 10.1 mph16.3 kmh 30.45 in1031.2 mb 0.00 in0.0 mm 0.00 in0.0 mm 0.00 in0.0 mm
08:00 AM 43.3°F6.3°C 40.3°F4.6°C 89% 10.1 mph S16.3 kmh S 10.8 mph17.4 kmh 30.44 in1030.8 mb 0.00 in0.0 mm 0.00 in0.0 mm 0.00 in0.0 mm
08:10 AM 43.3°F6.3°C 40.3°F4.6°C 89% 7.3 mph S11.7 kmh S 9.1 mph14.6 kmh 30.44 in1030.8 mb 0.00 in0.0 mm 0.00 in0.0 mm 0.00 in0.0 mm
08:20 AM 43.3°F6.3°C 40.0°F4.4°C 88% 11.4 mph S18.3 kmh S 12.5 mph20.1 kmh 30.44 in1030.8 mb 0.00 in0.0 mm 0.00 in0.0 mm 0.00 in0.0 mm
08:30 AM 43.5°F6.4°C 40.2°F4.6°C 88% 13.9 mph SSE22.4 kmh SSE 12.5 mph20.1 kmh 30.44 in1030.8 mb 0.00 in0.0 mm 0.00 in0.0 mm 0.00 in0.0 mm
08:40 AM 43.5°F6.4°C 40.2°F4.6°C 88% 11.0 mph S17.7 kmh S 11.8 mph19.0 kmh 30.45 in1031.2 mb 0.00 in0.0 mm 0.00 in0.0 mm 0.00 in0.0 mm
08:50 AM 43.7°F6.5°C 40.4°F4.7°C 88% 9.1 mph S14.6 kmh S 9.1 mph14.6 kmh 30.45 in1031.2 mb 0.00 in0.0 mm 0.00 in0.0 mm 0.00 in0.0 mm
09:00 AM 43.7°F6.5°C 40.4°F4.7°C 88% 11.2 mph S18.0 kmh S 11.8 mph19.0 kmh 30.45 in1031.2 mb 0.00 in0.0 mm 0.00 in0.0 mm 0.00 in0.0 mm
09:10 AM 43.7°F6.5°C 40.4°F4.7°C 88% 8.7 mph SW14.0 kmh SW 10.1 mph16.3 kmh 30.44 in1030.8 mb 0.00 in0.0 mm 0.00 in0.0 mm 0.00 in0.0 mm
09:20 AM 43.7°F6.5°C 40.4°F4.7°C 88% 13.3 mph S21.4 kmh S 15.0 mph24.1 kmh 30.44 in1030.8 mb 0.00 in0.0 mm 0.00 in0.0 mm 0.00 in0.0 mm
09:30 AM 43.9°F6.6°C 40.6°F4.8°C 88% 12.9 mph S20.8 kmh S 14.3 mph23.0 kmh 30.44 in1030.8 mb 0.00 in0.0 mm 0.00 in0.0 mm 0.00 in0.0 mm
09:40 AM 43.9°F6.6°C 40.6°F4.8°C 88% 11.9 mph SSW19.2 kmh SSW 13.3 mph21.4 kmh 30.44 in1030.8 mb 0.00 in0.0 mm 0.00 in0.0 mm 0.00 in0.0 mm
09:50 AM 44.1°F6.7°C 40.7°F4.8°C 88% 10.6 mph S17.1 kmh S 10.8 mph17.4 kmh 30.44 in1030.8 mb 0.00 in0.0 mm 0.00 in0.0 mm 0.00 in0.0 mm
10:00 AM 44.1°F6.7°C 40.7°F4.8°C 88% 11.2 mph S18.0 kmh S 12.5 mph20.1 kmh 30.44 in1030.8 mb 0.00 in0.0 mm 0.00 in0.0 mm 0.00 in0.0 mm
10:10 AM 44.2°F6.8°C 40.9°F4.9°C 88% 13.2 mph SSE21.2 kmh SSE 14.3 mph23.0 kmh 30.44 in1030.8 mb 0.00 in0.0 mm 0.00 in0.0 mm 0.00 in0.0 mm
10:20 AM 44.2°F6.8°C 40.6°F4.8°C 87% 14.2 mph SSW22.9 kmh SSW 15.0 mph24.1 kmh 30.44 in1030.8 mb 0.00 in0.0 mm 0.00 in0.0 mm 0.00 in0.0 mm
10:30 AM 44.2°F6.8°C 40.6°F4.8°C 87% 13.4 mph SW21.6 kmh SW 14.3 mph23.0 kmh 30.44 in1030.8 mb 0.00 in0.0 mm 0.00 in0.0 mm 0.00 in0.0 mm
10:40 AM 44.4°F6.9°C 40.8°F4.9°C 87% 10.7 mph S17.2 kmh S 10.8 mph17.4 kmh 30.43 in1030.5 mb 0.00 in0.0 mm 0.00 in0.0 mm 0.00 in0.0 mm
10:50 AM 44.2°F6.8°C 40.6°F4.8°C 87% 12.6 mph S20.3 kmh S 16.0 mph25.7 kmh 30.43 in1030.5 mb 0.00 in0.0 mm 0.00 in0.0 mm 0.00 in0.0 mm
11:00 AM 44.4°F6.9°C 40.8°F4.9°C 87% 12.4 mph SSE20.0 kmh SSE 12.5 mph20.1 kmh 30.43 in1030.5 mb 0.00 in0.0 mm 0.00 in0.0 mm 0.00 in0.0 mm
11:10 AM 44.4°F6.9°C 40.8°F4.9°C 87% 13.5 mph NE21.7 kmh NE 10.8 mph17.4 kmh 30.42 in1030.1 mb 0.00 in0.0 mm 0.00 in0.0 mm 0.00 in0.0 mm
11:20 AM 44.4°F6.9°C 40.8°F4.9°C 87% 8.4 mph S13.5 kmh S 10.8 mph17.4 kmh 30.42 in1030.1 mb 0.00 in0.0 mm 0.00 in0.0 mm 0.00 in0.0 mm
11:30 AM 44.6°F7.0°C 39.1°F3.9°C 81% 11.7 mph S18.8 kmh S 11.8 mph19.0 kmh 30.41 in1029.8 mb 0.00 in0.0 mm 0.00 in0.0 mm 0.00 in0.0 mm
11:40 AM 44.8°F7.1°C 39.3°F4.1°C 81% 13.0 mph S20.9 kmh S 14.3 mph23.0 kmh 30.41 in1029.8 mb 0.00 in0.0 mm 0.00 in0.0 mm 0.00 in0.0 mm
11:50 AM 45.0°F7.2°C 39.5°F4.2°C 81% 12.2 mph SSW19.6 kmh SSW 13.3 mph21.4 kmh 30.41 in1029.8 mb 0.00 in0.0 mm 0.00 in0.0 mm 0.00 in0.0 mm
12:00 PM 45.0°F7.2°C 39.5°F4.2°C 81% 13.1 mph S21.1 kmh S 16.0 mph25.7 kmh 30.41 in1029.8 mb 0.00 in0.0 mm 0.00 in0.0 mm 0.00 in0.0 mm
12:10 PM 45.1°F7.3°C 39.7°F4.3°C 81% 12.5 mph SSW20.1 kmh SSW 14.3 mph23.0 kmh 30.41 in1029.8 mb 0.00 in0.0 mm 0.00 in0.0 mm 0.00 in0.0 mm
12:20 PM 45.1°F7.3°C 39.7°F4.3°C 81% 10.5 mph S16.9 kmh S 10.8 mph17.4 kmh 30.41 in1029.8 mb 0.00 in0.0 mm 0.00 in0.0 mm 0.00 in0.0 mm
12:30 PM 45.3°F7.4°C 39.5°F4.2°C 80% 12.0 mph SSW19.3 kmh SSW 12.5 mph20.1 kmh 30.40 in1029.5 mb 0.00 in0.0 mm 0.00 in0.0 mm 0.00 in0.0 mm
12:40 PM 45.1°F7.3°C 39.3°F4.1°C 80% 13.6 mph SSW21.9 kmh SSW 15.0 mph24.1 kmh 30.40 in1029.5 mb 0.00 in0.0 mm 0.00 in0.0 mm 0.00 in0.0 mm
12:50 PM 45.1°F7.3°C 39.3°F4.1°C 80% 12.7 mph S20.4 kmh S 14.3 mph23.0 kmh 30.39 in1029.1 mb 0.00 in0.0 mm 0.00 in0.0 mm 0.00 in0.0 mm
01:00 PM 45.1°F7.3°C 39.3°F4.1°C 80% 11.5 mph SW18.5 kmh SW 15.0 mph24.1 kmh 30.39 in1029.1 mb 0.00 in0.0 mm 0.00 in0.0 mm 0.00 in0.0 mm
01:10 PM 45.1°F7.3°C 39.3°F4.1°C 80% 10.7 mph WNW17.2 kmh WNW 11.8 mph19.0 kmh 30.40 in1029.5 mb 0.00 in0.0 mm 0.00 in0.0 mm 0.00 in0.0 mm
01:20 PM 45.3°F7.4°C 39.5°F4.2°C 80% 10.3 mph SW16.6 kmh SW 13.3 mph21.4 kmh 30.38 in1028.8 mb 0.00 in0.0 mm 0.00 in0.0 mm 0.00 in0.0 mm
01:30 PM 45.5°F7.5°C 39.7°F4.3°C 80% 11.7 mph S18.8 kmh S 14.3 mph23.0 kmh 30.39 in1029.1 mb 0.00 in0.0 mm 0.00 in0.0 mm 0.00 in0.0 mm
01:40 PM 45.7°F7.6°C 39.9°F4.4°C 80% 12.1 mph SW19.5 kmh SW 12.5 mph20.1 kmh 30.38 in1028.8 mb 0.00 in0.0 mm 0.00 in0.0 mm 0.00 in0.0 mm
01:50 PM 45.7°F7.6°C 39.9°F4.4°C 80% 10.6 mph SSW17.1 kmh SSW 11.8 mph19.0 kmh 30.38 in1028.8 mb 0.00 in0.0 mm 0.00 in0.0 mm 0.00 in0.0 mm
02:00 PM 45.5°F7.5°C 39.7°F4.3°C 80% 11.1 mph S17.9 kmh S 12.5 mph20.1 kmh 30.38 in1028.8 mb 0.00 in0.0 mm 0.00 in0.0 mm 0.00 in0.0 mm
02:10 PM 45.5°F7.5°C 39.7°F4.3°C 80% 10.7 mph S17.2 kmh S 10.8 mph17.4 kmh 30.38 in1028.8 mb 0.00 in0.0 mm 0.00 in0.0 mm 0.00 in0.0 mm
02:20 PM 45.5°F7.5°C 39.7°F4.3°C 80% 10.8 mph S17.4 kmh S 10.8 mph17.4 kmh 30.37 in1028.4 mb 0.00 in0.0 mm 0.00 in0.0 mm 0.00 in0.0 mm
02:30 PM 45.3°F7.4°C 39.5°F4.2°C 80% 10.7 mph S17.2 kmh S 10.8 mph17.4 kmh 30.37 in1028.4 mb 0.00 in0.0 mm 0.00 in0.0 mm 0.00 in0.0 mm
02:40 PM 45.3°F7.4°C 39.5°F4.2°C 80% 10.2 mph WSW16.4 kmh WSW 12.5 mph20.1 kmh 30.37 in1028.4 mb 0.00 in0.0 mm 0.00 in0.0 mm 0.00 in0.0 mm
02:50 PM 45.3°F7.4°C 39.5°F4.2°C 80% 11.0 mph SW17.7 kmh SW 12.5 mph20.1 kmh 30.37 in1028.4 mb 0.00 in0.0 mm 0.00 in0.0 mm 0.00 in0.0 mm
03:00 PM 45.3°F7.4°C 39.5°F4.2°C 80% 10.2 mph SSW16.4 kmh SSW 11.8 mph19.0 kmh 30.37 in1028.4 mb 0.00 in0.0 mm 0.00 in0.0 mm 0.00 in0.0 mm
03:10 PM 45.3°F7.4°C 39.5°F4.2°C 80% 9.0 mph SSW14.5 kmh SSW 10.1 mph16.3 kmh 30.37 in1028.4 mb 0.00 in0.0 mm 0.00 in0.0 mm 0.00 in0.0 mm
03:20 PM 45.3°F7.4°C 39.5°F4.2°C 80% 12.0 mph W19.3 kmh W 12.5 mph20.1 kmh 30.37 in1028.4 mb 0.00 in0.0 mm 0.00 in0.0 mm 0.00 in0.0 mm
03:30 PM 45.1°F7.3°C 39.3°F4.1°C 80% 11.7 mph SW18.8 kmh SW 12.5 mph20.1 kmh 30.36 in1028.1 mb 0.00 in0.0 mm 0.00 in0.0 mm 0.00 in0.0 mm
03:40 PM 45.0°F7.2°C 39.2°F4.0°C 80% 12.2 mph SW19.6 kmh SW 12.5 mph20.1 kmh 30.36 in1028.1 mb 0.00 in0.0 mm 0.00 in0.0 mm 0.00 in0.0 mm
03:50 PM 45.0°F7.2°C 39.2°F4.0°C 80% 10.1 mph SE16.3 kmh SE 12.5 mph20.1 kmh 30.36 in1028.1 mb 0.00 in0.0 mm 0.00 in0.0 mm 0.00 in0.0 mm
04:00 PM 44.6°F7.0°C 38.8°F3.8°C 80% 8.6 mph S13.8 kmh S 10.1 mph16.3 kmh 30.36 in1028.1 mb 0.00 in0.0 mm 0.00 in0.0 mm 0.00 in0.0 mm
04:10 PM 44.4°F6.9°C 40.2°F4.6°C 85% 10.6 mph SSE17.1 kmh SSE 13.3 mph21.4 kmh 30.36 in1028.1 mb 0.00 in0.0 mm 0.00 in0.0 mm 0.00 in0.0 mm
04:20 PM 44.6°F7.0°C 39.1°F3.9°C 81% 11.1 mph S17.9 kmh S 13.3 mph21.4 kmh 30.35 in1027.8 mb 0.00 in0.0 mm 0.00 in0.0 mm 0.00 in0.0 mm
04:30 PM 44.6°F7.0°C 39.1°F3.9°C 81% 10.5 mph SSW16.9 kmh SSW 10.1 mph16.3 kmh 30.36 in1028.1 mb 0.00 in0.0 mm 0.00 in0.0 mm 0.00 in0.0 mm
04:40 PM 44.6°F7.0°C 39.1°F3.9°C 81% 10.5 mph S16.9 kmh S 10.8 mph17.4 kmh 30.36 in1028.1 mb 0.00 in0.0 mm 0.00 in0.0 mm 0.00 in0.0 mm
04:50 PM 44.4°F6.9°C 40.5°F4.7°C 86% 10.2 mph SSW16.4 kmh SSW 11.8 mph19.0 kmh 30.36 in1028.1 mb 0.00 in0.0 mm 0.00 in0.0 mm 0.00 in0.0 mm
05:00 PM 44.4°F6.9°C 40.5°F4.7°C 86% 8.8 mph W14.2 kmh W 9.1 mph14.6 kmh 30.36 in1028.1 mb 0.00 in0.0 mm 0.00 in0.0 mm 0.00 in0.0 mm
05:10 PM 44.2°F6.8°C 40.3°F4.6°C 86% 8.3 mph NW13.4 kmh NW 8.4 mph13.5 kmh 30.36 in1028.1 mb 0.00 in0.0 mm 0.00 in0.0 mm 0.00 in0.0 mm
05:20 PM 44.2°F6.8°C 40.6°F4.8°C 87% 9.4 mph SW15.1 kmh SW 9.1 mph14.6 kmh 30.37 in1028.4 mb 0.00 in0.0 mm 0.00 in0.0 mm 0.00 in0.0 mm
05:30 PM 44.2°F6.8°C 40.6°F4.8°C 87% 11.0 mph WSW17.7 kmh WSW 15.0 mph24.1 kmh 30.36 in1028.1 mb 0.00 in0.0 mm 0.00 in0.0 mm 0.00 in0.0 mm
05:40 PM 44.2°F6.8°C 40.6°F4.8°C 87% 10.3 mph SSE16.6 kmh SSE 10.8 mph17.4 kmh 30.36 in1028.1 mb 0.00 in0.0 mm 0.00 in0.0 mm 0.00 in0.0 mm
05:50 PM 44.2°F6.8°C 40.3°F4.6°C 86% 10.8 mph SSW17.4 kmh SSW 10.8 mph17.4 kmh 30.35 in1027.8 mb 0.00 in0.0 mm 0.00 in0.0 mm 0.00 in0.0 mm
06:00 PM 44.1°F6.7°C 40.1°F4.5°C 86% 9.7 mph S15.6 kmh S 11.8 mph19.0 kmh 30.35 in1027.8 mb 0.00 in0.0 mm 0.00 in0.0 mm 0.00 in0.0 mm
06:10 PM 44.1°F6.7°C 40.1°F4.5°C 86% 11.3 mph SW18.2 kmh SW 14.3 mph23.0 kmh 30.35 in1027.8 mb 0.00 in0.0 mm 0.00 in0.0 mm 0.00 in0.0 mm
06:20 PM 44.1°F6.7°C 40.1°F4.5°C 86% 11.1 mph SW17.9 kmh SW 14.3 mph23.0 kmh 30.35 in1027.8 mb 0.00 in0.0 mm 0.00 in0.0 mm 0.00 in0.0 mm
06:30 PM 44.1°F6.7°C 40.1°F4.5°C 86% 11.7 mph WSW18.8 kmh WSW 14.3 mph23.0 kmh 30.35 in1027.8 mb 0.00 in0.0 mm 0.00 in0.0 mm 0.00 in0.0 mm
06:40 PM 44.1°F6.7°C 40.1°F4.5°C 86% 9.8 mph SW15.8 kmh SW 11.8 mph19.0 kmh 30.36 in1028.1 mb 0.00 in0.0 mm 0.00 in0.0 mm 0.00 in0.0 mm
06:50 PM 44.1°F6.7°C 40.1°F4.5°C 86% 10.5 mph SSW16.9 kmh SSW 10.8 mph17.4 kmh 30.35 in1027.8 mb 0.00 in0.0 mm 0.00 in0.0 mm 0.00 in0.0 mm
07:00 PM 44.1°F6.7°C 39.8°F4.3°C 85% 10.0 mph SW16.1 kmh SW 10.1 mph16.3 kmh 30.35 in1027.8 mb 0.00 in0.0 mm 0.00 in0.0 mm 0.00 in0.0 mm
07:10 PM 44.1°F6.7°C 39.8°F4.3°C 85% 8.9 mph SW14.3 kmh SW 8.4 mph13.5 kmh 30.35 in1027.8 mb 0.00 in0.0 mm 0.00 in0.0 mm 0.00 in0.0 mm
07:20 PM 44.1°F6.7°C 39.8°F4.3°C 85% 14.2 mph SSW22.9 kmh SSW 14.3 mph23.0 kmh 30.34 in1027.4 mb 0.00 in0.0 mm 0.00 in0.0 mm 0.00 in0.0 mm
07:30 PM 44.1°F6.7°C 39.8°F4.3°C 85% 14.9 mph S24.0 kmh S 15.0 mph24.1 kmh 30.34 in1027.4 mb 0.00 in0.0 mm 0.00 in0.0 mm 0.00 in0.0 mm
07:40 PM 44.1°F6.7°C 39.8°F4.3°C 85% 15.6 mph SSW25.1 kmh SSW 16.7 mph26.9 kmh 30.34 in1027.4 mb 0.00 in0.0 mm 0.00 in0.0 mm 0.00 in0.0 mm
07:50 PM 43.9°F6.6°C 39.7°F4.3°C 85% 13.3 mph SSW21.4 kmh SSW 16.7 mph26.9 kmh 30.34 in1027.4 mb 0.00 in0.0 mm 0.00 in0.0 mm 0.00 in0.0 mm
08:00 PM 43.9°F6.6°C 39.7°F4.3°C 85% 15.8 mph SSW25.4 kmh SSW 17.5 mph28.2 kmh 30.33 in1027.1 mb 0.00 in0.0 mm 0.00 in0.0 mm 0.00 in0.0 mm
08:10 PM 43.9°F6.6°C 39.7°F4.3°C 85% 13.9 mph SSE22.4 kmh SSE 13.3 mph21.4 kmh 30.34 in1027.4 mb 0.00 in0.0 mm 0.00 in0.0 mm 0.00 in0.0 mm
08:20 PM 43.7°F6.5°C 39.5°F4.2°C 85% 12.1 mph SW19.5 kmh SW 10.8 mph17.4 kmh 30.35 in1027.8 mb 0.00 in0.0 mm 0.00 in0.0 mm 0.00 in0.0 mm
08:30 PM 43.7°F6.5°C 39.5°F4.2°C 85% 10.2 mph SSW16.4 kmh SSW 10.8 mph17.4 kmh 30.35 in1027.8 mb 0.00 in0.0 mm 0.00 in0.0 mm 0.00 in0.0 mm
08:40 PM 43.7°F6.5°C 39.8°F4.3°C 86% 10.6 mph S17.1 kmh S 12.5 mph20.1 kmh 30.34 in1027.4 mb 0.00 in0.0 mm 0.00 in0.0 mm 0.00 in0.0 mm
08:50 PM 43.5°F6.4°C 39.6°F4.2°C 86% 10.3 mph SSW16.6 kmh SSW 11.8 mph19.0 kmh 30.34 in1027.4 mb 0.00 in0.0 mm 0.00 in0.0 mm 0.00 in0.0 mm
09:00 PM 43.5°F6.4°C 39.6°F4.2°C 86% 11.1 mph S17.9 kmh S 10.8 mph17.4 kmh 30.34 in1027.4 mb 0.00 in0.0 mm 0.00 in0.0 mm 0.00 in0.0 mm
09:10 PM 43.5°F6.4°C 39.6°F4.2°C 86% 10.4 mph WSW16.7 kmh WSW 10.1 mph16.3 kmh 30.34 in1027.4 mb 0.00 in0.0 mm 0.00 in0.0 mm 0.00 in0.0 mm
09:20 PM 43.3°F6.3°C 39.4°F4.1°C 86% 9.3 mph SW15.0 kmh SW 11.8 mph19.0 kmh 30.34 in1027.4 mb 0.00 in0.0 mm 0.00 in0.0 mm 0.00 in0.0 mm
09:30 PM 43.2°F6.2°C 39.3°F4.1°C 86% 9.9 mph SSW15.9 kmh SSW 11.8 mph19.0 kmh 30.34 in1027.4 mb 0.00 in0.0 mm 0.00 in0.0 mm 0.00 in0.0 mm
09:40 PM 43.0°F6.1°C 39.1°F3.9°C 86% 9.7 mph SSW15.6 kmh SSW 11.8 mph19.0 kmh 30.34 in1027.4 mb 0.00 in0.0 mm 0.00 in0.0 mm 0.00 in0.0 mm
09:50 PM 42.8°F6.0°C 38.9°F3.8°C 86% 8.3 mph SW13.4 kmh SW 7.6 mph12.2 kmh 30.33 in1027.1 mb 0.00 in0.0 mm 0.00 in0.0 mm 0.00 in0.0 mm
10:00 PM 42.8°F6.0°C 38.9°F3.8°C 86% 9.5 mph SW15.3 kmh SW 10.1 mph16.3 kmh 30.33 in1027.1 mb 0.00 in0.0 mm 0.00 in0.0 mm 0.00 in0.0 mm
10:10 PM 42.6°F5.9°C 38.7°F3.7°C 86% 10.8 mph SW17.4 kmh SW 10.8 mph17.4 kmh 30.33 in1027.1 mb 0.00 in0.0 mm 0.00 in0.0 mm 0.00 in0.0 mm
10:20 PM 42.6°F5.9°C 38.7°F3.7°C 86% 10.0 mph SW16.1 kmh SW 10.1 mph16.3 kmh 30.33 in1027.1 mb 0.00 in0.0 mm 0.00 in0.0 mm 0.00 in0.0 mm
10:30 PM 42.6°F5.9°C 38.7°F3.7°C 86% 9.5 mph WSW15.3 kmh WSW 10.8 mph17.4 kmh 30.33 in1027.1 mb 0.00 in0.0 mm 0.00 in0.0 mm 0.00 in0.0 mm
10:40 PM 42.4°F5.8°C 38.5°F3.6°C 86% 7.9 mph SSW12.7 kmh SSW 9.1 mph14.6 kmh 30.34 in1027.4 mb 0.00 in0.0 mm 0.00 in0.0 mm 0.00 in0.0 mm
10:50 PM 42.3°F5.7°C 38.4°F3.6°C 86% 8.3 mph S13.4 kmh S 8.4 mph13.5 kmh 30.34 in1027.4 mb 0.00 in0.0 mm 0.00 in0.0 mm 0.00 in0.0 mm
11:00 PM 41.9°F5.5°C 38.0°F3.3°C 86% 10.7 mph WSW17.2 kmh WSW 10.1 mph16.3 kmh 30.33 in1027.1 mb 0.00 in0.0 mm 0.00 in0.0 mm 0.00 in0.0 mm
11:10 PM 41.9°F5.5°C 38.0°F3.3°C 86% 10.1 mph WSW16.3 kmh WSW 10.8 mph17.4 kmh 30.33 in1027.1 mb 0.00 in0.0 mm 0.00 in0.0 mm 0.00 in0.0 mm
11:20 PM 41.7°F5.4°C 38.1°F3.4°C 87% 11.0 mph S17.7 kmh S 15.0 mph24.1 kmh 30.33 in1027.1 mb 0.00 in0.0 mm 0.00 in0.0 mm 0.00 in0.0 mm
11:30 PM 41.4°F5.2°C 37.8°F3.2°C 87% 10.3 mph SW16.6 kmh SW 12.5 mph20.1 kmh 30.32 in1026.8 mb 0.00 in0.0 mm 0.00 in0.0 mm 0.00 in0.0 mm
11:40 PM 41.2°F5.1°C 37.6°F3.1°C 87% 10.6 mph SSW17.1 kmh SSW 10.1 mph16.3 kmh 30.32 in1026.8 mb 0.00 in0.0 mm 0.00 in0.0 mm 0.00 in0.0 mm
11:50 PM 41.0°F5.0°C 37.4°F3.0°C 87% 11.0 mph NW17.7 kmh NW 14.3 mph23.0 kmh 30.32 in1026.8 mb 0.00 in0.0 mm 0.00 in0.0 mm 0.00 in0.0 mm